createdAt,value
2023-05-21T00:01:08.299Z,31.38
2023-05-21T00:03:36.596Z,29.15
2023-05-21T00:06:04.205Z,31.88
2023-05-21T00:08:31.343Z,30.23
2023-05-21T00:10:58.342Z,28.05
2023-05-21T00:13:25.204Z,29.98
2023-05-21T00:15:52.154Z,32.15
2023-05-21T00:18:19.336Z,29.42
2023-05-21T00:20:46.110Z,33.70
2023-05-21T00:23:13.163Z,32.10
2023-05-21T00:25:40.084Z,31.55
2023-05-21T00:28:07.005Z,27.55
2023-05-21T00:30:33.795Z,31.88
2023-05-21T00:33:03.081Z,31.33
2023-05-21T00:35:30.145Z,29.30
2023-05-21T00:37:57.544Z,29.40
2023-05-21T00:40:24.551Z,30.42
2023-05-21T00:42:51.362Z,28.17
2023-05-21T00:45:18.241Z,35.67
2023-05-21T00:47:46.074Z,29.25
2023-05-21T00:50:15.302Z,30.00
2023-05-21T00:52:44.330Z,26.58
2023-05-21T00:55:11.322Z,28.55
2023-05-21T00:57:39.836Z,28.77
2023-05-21T01:00:09.060Z,31.60
2023-05-21T01:02:37.686Z,28.00
2023-05-21T01:05:07.427Z,29.10
2023-05-21T01:07:36.297Z,30.52
2023-05-21T01:10:05.346Z,28.02
2023-05-21T01:12:34.282Z,31.77
2023-05-21T01:15:03.104Z,34.10
2023-05-21T01:17:30.378Z,30.15
2023-05-21T01:19:58.495Z,29.92
2023-05-21T01:22:25.603Z,30.00
2023-05-21T01:24:55.777Z,30.83
2023-05-21T01:27:23.146Z,29.08
2023-05-21T01:29:50.051Z,30.30
2023-05-21T01:32:28.843Z,29.58
2023-05-21T01:35:17.143Z,30.48
2023-05-21T01:38:13.516Z,28.15
2023-05-21T01:41:03.934Z,29.58
2023-05-21T01:43:37.223Z,28.75
2023-05-21T01:46:05.865Z,28.90
2023-05-21T01:48:32.881Z,27.67
2023-05-21T01:51:03.628Z,29.10
2023-05-21T01:53:30.780Z,32.30
2023-05-21T01:55:57.733Z,27.23
2023-05-21T01:58:24.586Z,29.30
2023-05-21T02:00:51.460Z,30.35
2023-05-21T02:03:19.768Z,27.38
2023-05-21T02:05:47.366Z,27.83
2023-05-21T02:08:15.543Z,25.75
2023-05-21T02:10:42.406Z,28.13
2023-05-21T02:13:09.267Z,26.05
2023-05-21T02:15:36.568Z,27.75
2023-05-21T02:18:04.201Z,26.08
2023-05-21T02:20:31.620Z,26.65
2023-05-21T02:22:58.384Z,27.02
2023-05-21T02:25:25.189Z,26.40
2023-05-21T02:27:53.900Z,28.15
2023-05-21T02:30:21.120Z,29.15
2023-05-21T02:32:50.120Z,25.63
2023-05-21T02:35:16.977Z,27.35
2023-05-21T02:37:44.473Z,32.00
2023-05-21T02:40:12.080Z,26.50
2023-05-21T02:42:40.545Z,28.92
2023-05-21T02:45:11.844Z,26.65
2023-05-21T02:47:39.242Z,29.30
2023-05-21T02:50:08.997Z,26.27
2023-05-21T02:52:36.016Z,27.75
2023-05-21T02:55:02.996Z,28.80
2023-05-21T02:57:29.811Z,28.83
2023-05-21T02:59:56.654Z,26.92
2023-05-21T03:02:23.873Z,31.73
2023-05-21T03:04:51.675Z,34.70
2023-05-21T03:07:20.214Z,35.95
2023-05-21T03:09:47.149Z,33.95
2023-05-21T03:12:14.011Z,32.90
2023-05-21T03:14:44.368Z,30.42
2023-05-21T03:17:14.240Z,27.38
2023-05-21T03:19:44.950Z,30.20
2023-05-21T03:22:11.853Z,29.60
2023-05-21T03:24:39.516Z,30.77
2023-05-21T03:27:09.170Z,30.88
2023-05-21T03:29:36.404Z,29.55
2023-05-21T03:32:03.697Z,29.70
2023-05-21T03:34:30.607Z,32.58
2023-05-21T03:36:57.448Z,28.40
2023-05-21T03:39:24.261Z,29.33
2023-05-21T03:41:51.139Z,29.25
2023-05-21T03:44:17.997Z,26.45
2023-05-21T03:46:45.924Z,24.67
2023-05-21T03:49:12.826Z,27.52
2023-05-21T03:51:39.884Z,24.42
2023-05-21T03:54:06.783Z,26.40
2023-05-21T03:56:33.691Z,27.77
2023-05-21T03:59:00.488Z,30.52
2023-05-21T04:01:28.713Z,26.17
2023-05-21T04:03:56.114Z,28.08
2023-05-21T04:06:23.055Z,29.65
2023-05-21T04:08:49.926Z,30.35
2023-05-21T04:11:17.124Z,27.60
2023-05-21T04:13:43.895Z,28.75
2023-05-21T04:16:11.141Z,30.20
2023-05-21T04:18:37.958Z,27.40
2023-05-21T04:21:05.141Z,27.00
2023-05-21T04:23:32.041Z,32.05
2023-05-21T04:25:58.853Z,26.48
2023-05-21T04:28:29.031Z,28.02
2023-05-21T04:30:56.789Z,29.63
2023-05-21T04:33:24.775Z,25.48
2023-05-21T04:35:52.030Z,24.58
2023-05-21T04:38:22.027Z,27.52
2023-05-21T04:40:52.133Z,25.35
2023-05-21T04:43:26.518Z,25.00
2023-05-21T04:45:56.620Z,24.13
2023-05-21T04:48:25.105Z,23.42
2023-05-21T04:50:53.820Z,25.30
2023-05-21T04:53:21.024Z,24.77
2023-05-21T04:55:48.222Z,24.65
2023-05-21T04:58:18.083Z,22.90
2023-05-21T05:00:47.369Z,21.77
2023-05-21T05:03:14.850Z,27.08
2023-05-21T05:05:42.251Z,22.02
2023-05-21T05:08:09.033Z,20.88
2023-05-21T05:10:36.278Z,20.35
2023-05-21T05:13:03.232Z,20.80
2023-05-21T05:15:30.100Z,19.98
2023-05-21T05:17:56.973Z,22.90
2023-05-21T05:20:23.889Z,23.58
2023-05-21T05:22:50.826Z,22.83
2023-05-21T05:25:17.807Z,20.25
2023-05-21T05:27:44.772Z,20.73
2023-05-21T05:30:12.064Z,19.60
2023-05-21T05:32:38.920Z,21.10
2023-05-21T05:35:06.455Z,21.88
2023-05-21T05:37:33.890Z,19.92
2023-05-21T05:40:00.668Z,19.73
2023-05-21T05:42:27.471Z,20.40
2023-05-21T05:44:54.197Z,22.70
2023-05-21T05:47:22.039Z,20.27
2023-05-21T05:49:48.859Z,19.20
2023-05-21T05:52:15.630Z,21.35
2023-05-21T05:54:42.399Z,20.33
2023-05-21T05:57:09.224Z,23.27
2023-05-21T05:59:36.233Z,22.73
2023-05-21T06:02:03.045Z,19.92
2023-05-21T06:04:30.329Z,22.83
2023-05-21T06:06:57.952Z,22.27
2023-05-21T06:09:25.113Z,19.98
2023-05-21T06:11:51.972Z,21.40
2023-05-21T06:14:18.847Z,19.65
2023-05-21T06:16:45.709Z,22.08
2023-05-21T06:19:12.569Z,19.83
2023-05-21T06:21:39.464Z,22.13
2023-05-21T06:24:06.791Z,18.55
2023-05-21T06:26:33.611Z,17.83
2023-05-21T06:29:00.650Z,18.75
2023-05-21T06:31:28.296Z,19.00
2023-05-21T06:33:55.379Z,21.90
2023-05-21T06:36:22.408Z,19.20
2023-05-21T06:38:49.362Z,22.10
2023-05-21T06:41:16.197Z,20.27
2023-05-21T06:43:43.019Z,18.73
2023-05-21T06:46:09.950Z,18.67
2023-05-21T06:48:36.861Z,16.20
2023-05-21T06:51:03.857Z,19.80
2023-05-21T06:53:30.933Z,18.52
2023-05-21T06:55:57.830Z,19.73
2023-05-21T06:58:24.790Z,19.73
2023-05-21T07:00:51.795Z,17.65
2023-05-21T07:03:18.710Z,14.65
2023-05-21T07:05:45.676Z,17.60
2023-05-21T07:08:12.607Z,16.77
2023-05-21T07:10:39.428Z,19.20
2023-05-21T07:13:06.348Z,15.57
2023-05-21T07:15:33.147Z,15.35
2023-05-21T07:18:00.150Z,16.83
2023-05-21T07:20:27.142Z,17.67
2023-05-21T07:22:54.001Z,14.10
2023-05-21T07:25:21.190Z,17.83
2023-05-21T07:27:48.013Z,15.02
2023-05-21T07:30:15.207Z,15.18
2023-05-21T07:32:42.390Z,16.35
2023-05-21T07:35:09.690Z,18.10
2023-05-21T07:37:36.648Z,13.40
2023-05-21T07:40:04.451Z,16.73
2023-05-21T07:42:31.519Z,15.15
2023-05-21T07:44:58.319Z,15.60
2023-05-21T07:47:25.150Z,13.05
2023-05-21T07:49:52.143Z,14.23
2023-05-21T07:52:19.080Z,14.50
2023-05-21T07:54:46.116Z,13.23
2023-05-21T07:57:12.893Z,14.07
2023-05-21T07:59:39.765Z,13.80
2023-05-21T08:02:06.652Z,16.65
2023-05-21T08:04:33.621Z,14.00
2023-05-21T08:07:00.432Z,14.38
2023-05-21T08:09:27.332Z,14.88
2023-05-21T08:11:54.113Z,13.77
2023-05-21T08:14:21.002Z,20.45
2023-05-21T08:16:47.958Z,16.42
2023-05-21T08:19:14.833Z,13.15
2023-05-21T08:21:41.965Z,14.93
2023-05-21T08:24:09.180Z,16.20
2023-05-21T08:26:36.754Z,11.95
2023-05-21T08:29:03.644Z,12.55
2023-05-21T08:31:30.573Z,13.02
2023-05-21T08:33:57.574Z,16.45
2023-05-21T08:36:25.139Z,12.52
2023-05-21T08:38:51.971Z,12.13
2023-05-21T08:41:23.516Z,13.57
2023-05-21T08:44:00.542Z,12.55
2023-05-21T08:46:32.356Z,13.65
2023-05-21T08:49:01.877Z,14.60
2023-05-21T08:51:29.211Z,13.07
2023-05-21T08:53:57.802Z,15.20
2023-05-21T08:56:25.018Z,14.90
2023-05-21T08:58:52.510Z,14.15
2023-05-21T09:01:20.057Z,13.40
2023-05-21T09:03:47.511Z,13.07
2023-05-21T09:06:14.810Z,11.98
2023-05-21T09:08:49.871Z,13.18
2023-05-21T09:11:16.786Z,11.40
2023-05-21T09:13:45.207Z,15.38
2023-05-21T09:16:12.394Z,12.35
2023-05-21T09:18:39.156Z,12.65
2023-05-21T09:21:24.727Z,13.00
2023-05-21T09:23:56.455Z,15.43
2023-05-21T09:26:24.087Z,14.27
2023-05-21T09:28:52.533Z,12.55
2023-05-21T09:31:19.428Z,14.10
2023-05-21T09:33:49.950Z,13.68
2023-05-21T09:36:23.112Z,15.55
2023-05-21T09:38:52.279Z,16.13
2023-05-21T09:41:32.361Z,12.35
2023-05-21T09:44:01.410Z,11.10
2023-05-21T09:46:28.445Z,12.18
2023-05-21T09:48:55.298Z,10.35
2023-05-21T09:51:22.125Z,13.13
2023-05-21T09:53:51.513Z,15.77
2023-05-21T09:56:26.363Z,13.70
2023-05-21T09:58:57.307Z,13.25
2023-05-21T10:01:24.916Z,12.02
2023-05-21T10:03:56.621Z,11.68
2023-05-21T10:06:26.787Z,13.23
2023-05-21T10:08:57.082Z,11.63
2023-05-21T10:11:27.344Z,17.58
2023-05-21T10:14:09.242Z,12.02
2023-05-21T10:16:37.869Z,13.60
2023-05-21T10:19:06.230Z,11.73
2023-05-21T10:21:36.302Z,11.40
2023-05-21T10:24:04.694Z,12.40
2023-05-21T10:26:31.919Z,14.52
2023-05-21T10:29:00.668Z,14.35
2023-05-21T10:31:30.561Z,11.82
2023-05-21T10:33:58.120Z,11.80
2023-05-21T10:36:27.957Z,11.07
2023-05-21T10:38:58.741Z,11.27
2023-05-21T10:41:28.463Z,14.82
2023-05-21T10:44:17.232Z,10.70
2023-05-21T10:47:05.395Z,11.65
2023-05-21T10:49:55.195Z,12.13
2023-05-21T10:52:52.678Z,13.75
2023-05-21T10:55:37.737Z,13.45
2023-05-21T10:58:35.632Z,10.88
2023-05-21T11:01:03.361Z,10.95
2023-05-21T11:03:34.305Z,10.68
2023-05-21T11:06:05.682Z,11.55
2023-05-21T11:08:36.320Z,10.88
2023-05-21T11:11:04.138Z,14.52
2023-05-21T11:13:49.555Z,11.88
2023-05-21T11:16:17.445Z,12.85
2023-05-21T11:18:47.136Z,14.27
2023-05-21T11:21:15.708Z,11.25
2023-05-21T11:23:51.615Z,15.00
2023-05-21T11:26:26.473Z,10.80
2023-05-21T11:29:05.577Z,11.50
2023-05-21T11:31:38.897Z,22.27
2023-05-21T11:34:28.905Z,11.25
2023-05-21T11:37:23.673Z,10.23
2023-05-21T11:39:51.522Z,10.95
2023-05-21T11:42:32.313Z,10.55
2023-05-21T11:45:00.262Z,10.80
2023-05-21T11:47:29.191Z,10.40
2023-05-21T11:49:57.709Z,11.63
2023-05-21T11:52:25.511Z,11.80
2023-05-21T11:54:57.221Z,11.90
2023-05-21T11:57:30.960Z,12.73
2023-05-21T11:59:59.370Z,14.50
2023-05-21T12:02:33.266Z,11.05
2023-05-21T12:05:00.770Z,13.32
2023-05-21T12:07:30.095Z,11.75
2023-05-21T12:09:57.631Z,10.48
2023-05-21T12:12:30.809Z,10.85
2023-05-21T12:15:02.881Z,16.50
2023-05-21T12:17:32.012Z,10.80
2023-05-21T12:19:59.158Z,11.23
2023-05-21T12:22:29.324Z,12.82
2023-05-21T12:24:58.478Z,11.90
2023-05-21T12:27:25.423Z,10.70
2023-05-21T12:29:53.298Z,13.63
2023-05-21T12:32:21.598Z,11.05
2023-05-21T12:34:54.918Z,12.15
2023-05-21T12:37:32.624Z,9.80
2023-05-21T12:40:01.723Z,10.38
2023-05-21T12:42:31.270Z,10.50
2023-05-21T12:44:58.433Z,10.85
2023-05-21T12:47:27.107Z,11.00
2023-05-21T12:49:58.123Z,11.15
2023-05-21T12:52:27.446Z,12.07
2023-05-21T12:54:59.086Z,11.90
2023-05-21T12:57:30.550Z,11.07
2023-05-21T12:59:59.726Z,11.85
2023-05-21T13:02:32.706Z,10.10
2023-05-21T13:04:59.480Z,10.65
2023-05-21T13:07:28.170Z,10.07
2023-05-21T13:09:56.007Z,10.07
2023-05-21T13:12:24.783Z,9.50
2023-05-21T13:14:53.218Z,9.52
2023-05-21T13:17:21.118Z,10.50
2023-05-21T13:20:15.650Z,8.82
2023-05-21T13:22:48.100Z,9.52
2023-05-21T13:25:21.539Z,9.27
2023-05-21T13:27:50.332Z,9.60
2023-05-21T13:30:17.567Z,9.02
2023-05-21T13:32:44.884Z,9.40
2023-05-21T13:35:12.487Z,9.57
2023-05-21T13:37:40.555Z,8.70
2023-05-21T13:40:11.350Z,9.27
2023-05-21T13:42:41.214Z,10.90
2023-05-21T13:45:10.721Z,12.05
2023-05-21T13:47:40.153Z,8.75
2023-05-21T13:50:11.123Z,10.65
2023-05-21T13:52:38.532Z,10.30
2023-05-21T13:55:06.131Z,10.50
2023-05-21T13:57:33.491Z,12.52
2023-05-21T14:00:01.401Z,9.77
2023-05-21T14:02:28.598Z,12.15
2023-05-21T14:04:55.540Z,9.57
2023-05-21T14:07:22.720Z,10.50
2023-05-21T14:09:49.819Z,12.65
2023-05-21T14:12:17.366Z,10.20
2023-05-21T14:14:44.381Z,11.77
2023-05-21T14:17:11.370Z,11.05
2023-05-21T14:19:38.186Z,9.43
2023-05-21T14:22:05.174Z,9.85
2023-05-21T14:24:32.009Z,11.02
2023-05-21T14:26:58.841Z,9.68
2023-05-21T14:29:25.662Z,11.27
2023-05-21T14:31:52.586Z,11.18
2023-05-21T14:34:19.519Z,9.93
2023-05-21T14:36:46.291Z,11.38
2023-05-21T14:39:13.136Z,11.05
2023-05-21T14:41:40.073Z,11.25
2023-05-21T14:44:07.046Z,12.80
2023-05-21T14:46:34.095Z,17.08
2023-05-21T14:49:01.181Z,10.63
2023-05-21T14:51:28.105Z,10.57
2023-05-21T14:53:55.965Z,10.45
2023-05-21T14:56:23.773Z,9.80
2023-05-21T14:58:50.652Z,13.20
2023-05-21T15:01:17.981Z,10.13
2023-05-21T15:03:44.886Z,9.88
2023-05-21T15:06:12.438Z,11.13
2023-05-21T15:08:39.253Z,10.48
2023-05-21T15:11:07.940Z,10.20
2023-05-21T15:13:34.857Z,10.23
2023-05-21T15:16:01.718Z,9.82
2023-05-21T15:18:29.572Z,10.18
2023-05-21T15:20:56.691Z,16.20
2023-05-21T15:23:23.521Z,10.82
2023-05-21T15:25:50.541Z,9.82
2023-05-21T15:28:17.405Z,9.68
2023-05-21T15:30:44.222Z,9.00
2023-05-21T15:33:11.735Z,9.38
2023-05-21T15:35:39.027Z,11.35
2023-05-21T15:38:06.254Z,9.93
2023-05-21T15:40:33.162Z,11.00
2023-05-21T15:43:00.158Z,10.27
2023-05-21T15:45:27.095Z,10.23
2023-05-21T15:47:53.948Z,10.63
2023-05-21T15:50:20.908Z,8.32
2023-05-21T15:52:47.716Z,11.90
2023-05-21T15:55:14.723Z,10.40
2023-05-21T15:57:41.558Z,9.75
2023-05-21T16:00:09.842Z,10.98
2023-05-21T16:02:37.094Z,9.50
2023-05-21T16:05:04.216Z,10.60
2023-05-21T16:07:31.083Z,10.50
2023-05-21T16:09:57.982Z,9.63
2023-05-21T16:12:24.999Z,9.38
2023-05-21T16:14:52.029Z,9.90
2023-05-21T16:17:21.977Z,11.27
2023-05-21T16:19:48.883Z,9.60
2023-05-21T16:22:15.831Z,9.57
2023-05-21T16:24:42.990Z,11.75
2023-05-21T16:27:09.833Z,11.68
2023-05-21T16:29:38.658Z,10.38
2023-05-21T16:32:07.186Z,10.55
2023-05-21T16:34:34.741Z,11.00
2023-05-21T16:37:01.585Z,9.68
2023-05-21T16:39:28.359Z,9.15
2023-05-21T16:41:59.851Z,9.93
2023-05-21T16:44:27.636Z,9.80
2023-05-21T16:46:54.593Z,9.07
2023-05-21T16:49:21.396Z,10.85
2023-05-21T16:51:48.162Z,9.85
2023-05-21T16:54:14.989Z,10.45
2023-05-21T16:56:41.870Z,13.98
2023-05-21T16:59:08.689Z,10.07
2023-05-21T17:01:35.609Z,9.98
2023-05-21T17:04:02.712Z,12.27
2023-05-21T17:06:29.567Z,11.52
2023-05-21T17:08:56.484Z,15.18
2023-05-21T17:11:23.338Z,12.38
2023-05-21T17:13:50.166Z,9.45
2023-05-21T17:16:17.024Z,10.38
2023-05-21T17:18:44.002Z,12.10
2023-05-21T17:21:10.991Z,11.02
2023-05-21T17:23:37.830Z,10.73
2023-05-21T17:26:07.258Z,13.95
2023-05-21T17:28:33.992Z,16.08
2023-05-21T17:31:01.968Z,12.45
2023-05-21T17:33:28.870Z,12.43
2023-05-21T17:35:57.333Z,11.55
2023-05-21T17:38:24.226Z,12.60
2023-05-21T17:40:51.219Z,10.55
2023-05-21T17:43:18.293Z,11.77
2023-05-21T17:45:45.198Z,13.40
2023-05-21T17:48:12.442Z,12.35
2023-05-21T17:50:39.291Z,14.98
2023-05-21T17:53:06.230Z,10.60
2023-05-21T17:55:33.042Z,18.02
2023-05-21T17:57:59.782Z,11.88
2023-05-21T18:00:26.564Z,13.25
2023-05-21T18:02:53.407Z,11.88
2023-05-21T18:05:20.686Z,11.20
2023-05-21T18:07:49.478Z,11.93
2023-05-21T18:10:16.794Z,13.02
2023-05-21T18:12:46.629Z,14.23
2023-05-21T18:15:15.463Z,12.48
2023-05-21T18:17:42.350Z,19.40
2023-05-21T18:20:09.802Z,13.70
2023-05-21T18:22:36.922Z,14.40
2023-05-21T18:25:04.664Z,12.82
2023-05-21T18:27:31.483Z,13.13
2023-05-21T18:29:58.245Z,18.70
2023-05-21T18:32:25.166Z,13.05
2023-05-21T18:34:52.090Z,11.50
2023-05-21T18:37:19.088Z,13.00
2023-05-21T18:39:45.980Z,13.93
2023-05-21T18:42:14.124Z,12.55
2023-05-21T18:44:41.284Z,16.70
2023-05-21T18:47:08.323Z,12.73
2023-05-21T18:49:36.480Z,11.63
2023-05-21T18:52:04.588Z,14.40
2023-05-21T18:54:31.457Z,12.32
2023-05-21T18:57:00.611Z,12.30
2023-05-21T18:59:29.327Z,14.75
2023-05-21T19:01:56.405Z,11.43
2023-05-21T19:04:23.294Z,15.68
2023-05-21T19:06:50.147Z,12.85
2023-05-21T19:09:17.133Z,14.95
2023-05-21T19:11:44.179Z,17.23
2023-05-21T19:14:11.191Z,15.68
2023-05-21T19:16:38.192Z,16.55
2023-05-21T19:19:06.287Z,17.17
2023-05-21T19:21:33.329Z,19.00
2023-05-21T19:24:00.170Z,14.77
2023-05-21T19:26:27.146Z,13.52
2023-05-21T19:28:54.812Z,13.25
2023-05-21T19:31:23.245Z,15.45
2023-05-21T19:33:50.689Z,14.02
2023-05-21T19:36:18.705Z,15.80
2023-05-21T19:38:50.140Z,16.85
2023-05-21T19:41:17.697Z,13.45
2023-05-21T19:43:45.238Z,14.60
2023-05-21T19:46:12.266Z,14.38
2023-05-21T19:48:39.215Z,16.90
2023-05-21T19:51:06.250Z,16.15
2023-05-21T19:53:33.083Z,15.57
2023-05-21T19:56:00.265Z,15.05
2023-05-21T19:58:29.731Z,15.90
2023-05-21T20:00:58.629Z,16.45
2023-05-21T20:03:26.847Z,13.23
2023-05-21T20:05:54.517Z,13.50
2023-05-21T20:08:21.518Z,13.25
2023-05-21T20:10:51.336Z,14.43
2023-05-21T20:13:18.979Z,13.65
2023-05-21T20:15:45.860Z,16.52
2023-05-21T20:18:13.216Z,17.38
2023-05-21T20:20:41.538Z,17.30
2023-05-21T20:23:09.164Z,16.95
2023-05-21T20:25:36.052Z,16.63
2023-05-21T20:28:03.309Z,20.00
2023-05-21T20:30:34.190Z,17.77
2023-05-21T20:33:02.487Z,16.63
2023-05-21T20:35:29.764Z,15.73
2023-05-21T20:37:56.586Z,16.17
2023-05-21T20:40:23.472Z,17.60
2023-05-21T20:42:52.253Z,16.95
2023-05-21T20:45:19.278Z,18.13
2023-05-21T20:47:48.238Z,20.23
2023-05-21T20:50:17.980Z,19.10
2023-05-21T20:52:47.103Z,22.92
2023-05-21T20:55:14.916Z,18.25
2023-05-21T20:57:42.368Z,21.90
2023-05-21T21:00:12.126Z,21.13
2023-05-21T21:02:39.334Z,23.02
2023-05-21T21:05:06.652Z,21.50
2023-05-21T21:07:34.432Z,18.50
2023-05-21T21:10:01.648Z,22.00
2023-05-21T21:12:28.648Z,20.58
2023-05-21T21:14:55.683Z,23.23
2023-05-21T21:17:22.692Z,19.48
2023-05-21T21:19:49.472Z,20.25
2023-05-21T21:22:16.630Z,21.67
2023-05-21T21:24:43.470Z,20.08
2023-05-21T21:27:10.499Z,22.80
2023-05-21T21:29:37.327Z,19.20
2023-05-21T21:32:04.485Z,19.10
2023-05-21T21:34:31.261Z,22.00
2023-05-21T21:36:58.019Z,20.90
2023-05-21T21:39:26.414Z,19.80
2023-05-21T21:41:53.192Z,20.38
2023-05-21T21:44:19.986Z,28.08
2023-05-21T21:46:47.525Z,21.83
2023-05-21T21:49:16.951Z,23.35
2023-05-21T21:51:48.633Z,21.48
2023-05-21T21:54:15.445Z,23.30
2023-05-21T21:56:42.197Z,24.15
2023-05-21T21:59:09.106Z,21.52
2023-05-21T22:01:36.308Z,18.98
2023-05-21T22:04:03.342Z,26.27
2023-05-21T22:06:30.212Z,23.52
2023-05-21T22:08:57.047Z,26.83
2023-05-21T22:11:24.081Z,23.15
2023-05-21T22:13:50.873Z,25.90
2023-05-21T22:16:17.717Z,20.35
2023-05-21T22:18:44.652Z,28.50
2023-05-21T22:21:14.615Z,26.00
2023-05-21T22:23:41.657Z,23.55
2023-05-21T22:26:09.594Z,22.27
2023-05-21T22:28:36.510Z,26.92
2023-05-21T22:31:03.479Z,24.95
2023-05-21T22:33:30.525Z,22.15
2023-05-21T22:35:57.344Z,23.10
2023-05-21T22:38:25.070Z,24.83
2023-05-21T22:40:51.893Z,23.58
2023-05-21T22:43:18.746Z,25.17
2023-05-21T22:45:45.662Z,22.38
2023-05-21T22:48:12.516Z,23.83
2023-05-21T22:50:39.620Z,28.98
2023-05-21T22:53:07.268Z,29.10
2023-05-21T22:55:34.081Z,26.73
2023-05-21T22:58:00.874Z,27.75
2023-05-21T23:00:28.407Z,27.15
2023-05-21T23:02:55.277Z,24.70
2023-05-21T23:05:22.578Z,28.65
2023-05-21T23:07:49.984Z,27.98
2023-05-21T23:10:16.920Z,24.23
2023-05-21T23:12:43.798Z,24.60
2023-05-21T23:15:11.028Z,23.77
2023-05-21T23:17:38.605Z,25.25
2023-05-21T23:20:07.545Z,25.70
2023-05-21T23:22:34.891Z,23.63
2023-05-21T23:25:02.054Z,25.77
2023-05-21T23:27:29.517Z,33.63
2023-05-21T23:29:56.706Z,24.33
2023-05-21T23:32:24.229Z,29.08
2023-05-21T23:34:51.073Z,25.40
2023-05-21T23:37:18.070Z,24.60
2023-05-21T23:39:48.399Z,34.25
2023-05-21T23:42:16.709Z,24.50
2023-05-21T23:44:43.659Z,25.88
2023-05-21T23:47:10.638Z,28.15
2023-05-21T23:49:37.480Z,26.35
2023-05-21T23:52:04.473Z,25.45
2023-05-21T23:54:31.397Z,28.25
2023-05-21T23:56:58.179Z,29.48
2023-05-21T23:59:25.103Z,29.85
